sensor_id;sensor_type;location;lat;lon;timestamp;P1;durP1;ratioP1;P2;durP2;ratioP2
77788;SDS011;66980;44.384;0.512;2023-04-09T00:02:11;1.70;;;0.80;;
77788;SDS011;66980;44.384;0.512;2023-04-09T00:04:36;4.63;;;0.70;;
77788;SDS011;66980;44.384;0.512;2023-04-09T00:07:02;1.35;;;0.93;;
77788;SDS011;66980;44.384;0.512;2023-04-09T00:09:28;1.60;;;0.65;;
77788;SDS011;66980;44.384;0.512;2023-04-09T00:11:53;1.10;;;0.63;;
77788;SDS011;66980;44.384;0.512;2023-04-09T00:14:20;1.13;;;0.68;;
77788;SDS011;66980;44.384;0.512;2023-04-09T00:16:46;3.47;;;0.73;;
77788;SDS011;66980;44.384;0.512;2023-04-09T00:19:11;0.60;;;0.40;;
77788;SDS011;66980;44.384;0.512;2023-04-09T00:21:37;1.55;;;0.73;;
77788;SDS011;66980;44.384;0.512;2023-04-09T00:24:02;2.33;;;0.50;;
77788;SDS011;66980;44.384;0.512;2023-04-09T00:26:28;1.52;;;0.57;;
77788;SDS011;66980;44.384;0.512;2023-04-09T00:28:55;1.80;;;0.52;;
77788;SDS011;66980;44.384;0.512;2023-04-09T00:31:20;1.23;;;0.50;;
77788;SDS011;66980;44.384;0.512;2023-04-09T00:33:46;1.98;;;0.77;;
77788;SDS011;66980;44.384;0.512;2023-04-09T00:36:11;3.80;;;0.85;;
77788;SDS011;66980;44.384;0.512;2023-04-09T00:38:37;1.20;;;0.50;;
77788;SDS011;66980;44.384;0.512;2023-04-09T00:41:02;2.13;;;0.60;;
77788;SDS011;66980;44.384;0.512;2023-04-09T00:43:28;1.05;;;0.63;;
77788;SDS011;66980;44.384;0.512;2023-04-09T00:45:53;1.02;;;0.40;;
77788;SDS011;66980;44.384;0.512;2023-04-09T00:48:20;0.95;;;0.70;;
77788;SDS011;66980;44.384;0.512;2023-04-09T00:50:45;1.95;;;0.63;;
77788;SDS011;66980;44.384;0.512;2023-04-09T00:53:11;0.85;;;0.65;;
77788;SDS011;66980;44.384;0.512;2023-04-09T00:55:39;1.30;;;0.75;;
77788;SDS011;66980;44.384;0.512;2023-04-09T00:58:05;0.63;;;0.40;;
77788;SDS011;66980;44.384;0.512;2023-04-09T01:00:31;0.82;;;0.52;;
77788;SDS011;66980;44.384;0.512;2023-04-09T01:02:57;2.10;;;0.80;;
77788;SDS011;66980;44.384;0.512;2023-04-09T01:05:30;1.88;;;0.93;;
77788;SDS011;66980;44.384;0.512;2023-04-09T01:08:37;2.47;;;0.80;;
77788;SDS011;66980;44.384;0.512;2023-04-09T01:16:41;2.38;;;0.77;;
77788;SDS011;66980;44.384;0.512;2023-04-09T01:22:05;2.67;;;0.80;;
77788;SDS011;66980;44.384;0.512;2023-04-09T01:25:02;2.00;;;0.63;;
77788;SDS011;66980;44.384;0.512;2023-04-09T01:30:27;1.23;;;0.60;;
77788;SDS011;66980;44.384;0.512;2023-04-09T01:32:54;1.58;;;0.57;;
77788;SDS011;66980;44.384;0.512;2023-04-09T01:35:22;0.80;;;0.52;;
77788;SDS011;66980;44.384;0.512;2023-04-09T01:37:50;0.60;;;0.45;;
77788;SDS011;66980;44.384;0.512;2023-04-09T01:40:17;2.33;;;0.50;;
77788;SDS011;66980;44.384;0.512;2023-04-09T01:42:43;1.30;;;0.93;;
77788;SDS011;66980;44.384;0.512;2023-04-09T01:45:11;2.35;;;1.30;;
77788;SDS011;66980;44.384;0.512;2023-04-09T01:47:38;2.13;;;0.52;;
77788;SDS011;66980;44.384;0.512;2023-04-09T01:50:05;2.35;;;0.60;;
77788;SDS011;66980;44.384;0.512;2023-04-09T01:52:31;1.10;;;0.50;;
77788;SDS011;66980;44.384;0.512;2023-04-09T01:54:56;1.67;;;0.40;;
77788;SDS011;66980;44.384;0.512;2023-04-09T01:57:22;1.00;;;0.57;;
77788;SDS011;66980;44.384;0.512;2023-04-09T01:59:47;1.80;;;0.90;;
77788;SDS011;66980;44.384;0.512;2023-04-09T02:02:18;0.75;;;0.52;;
77788;SDS011;66980;44.384;0.512;2023-04-09T02:04:48;1.95;;;0.57;;
77788;SDS011;66980;44.384;0.512;2023-04-09T02:07:32;1.00;;;0.50;;
77788;SDS011;66980;44.384;0.512;2023-04-09T02:10:00;0.60;;;0.50;;
77788;SDS011;66980;44.384;0.512;2023-04-09T02:12:26;1.50;;;0.60;;
77788;SDS011;66980;44.384;0.512;2023-04-09T02:14:55;1.80;;;0.70;;
77788;SDS011;66980;44.384;0.512;2023-04-09T02:17:25;1.73;;;0.82;;
77788;SDS011;66980;44.384;0.512;2023-04-09T02:19:51;2.38;;;0.57;;
77788;SDS011;66980;44.384;0.512;2023-04-09T02:22:16;1.20;;;0.57;;
77788;SDS011;66980;44.384;0.512;2023-04-09T02:24:42;0.73;;;0.50;;
77788;SDS011;66980;44.384;0.512;2023-04-09T02:27:09;1.42;;;0.60;;
77788;SDS011;66980;44.384;0.512;2023-04-09T02:29:35;1.73;;;0.60;;
77788;SDS011;66980;44.384;0.512;2023-04-09T02:32:00;1.35;;;0.90;;
77788;SDS011;66980;44.384;0.512;2023-04-09T02:34:26;2.70;;;0.95;;
77788;SDS011;66980;44.384;0.512;2023-04-09T02:36:52;0.98;;;0.50;;
77788;SDS011;66980;44.384;0.512;2023-04-09T02:39:17;2.00;;;0.57;;
77788;SDS011;66980;44.384;0.512;2023-04-09T02:41:43;1.35;;;0.60;;
77788;SDS011;66980;44.384;0.512;2023-04-09T02:44:08;0.93;;;0.52;;
77788;SDS011;66980;44.384;0.512;2023-04-09T02:46:34;1.25;;;0.60;;
77788;SDS011;66980;44.384;0.512;2023-04-09T02:49:00;1.10;;;0.70;;
77788;SDS011;66980;44.384;0.512;2023-04-09T02:51:25;1.20;;;0.93;;
77788;SDS011;66980;44.384;0.512;2023-04-09T02:53:51;1.77;;;0.80;;
77788;SDS011;66980;44.384;0.512;2023-04-09T02:56:17;0.80;;;0.50;;
77788;SDS011;66980;44.384;0.512;2023-04-09T02:58:43;0.90;;;0.40;;
77788;SDS011;66980;44.384;0.512;2023-04-09T03:01:08;1.77;;;0.60;;
77788;SDS011;66980;44.384;0.512;2023-04-09T03:03:34;2.05;;;0.70;;
77788;SDS011;66980;44.384;0.512;2023-04-09T03:06:01;1.25;;;0.40;;
77788;SDS011;66980;44.384;0.512;2023-04-09T03:08:26;1.13;;;0.77;;
77788;SDS011;66980;44.384;0.512;2023-04-09T03:10:52;1.38;;;0.63;;
77788;SDS011;66980;44.384;0.512;2023-04-09T03:13:17;2.60;;;0.88;;
77788;SDS011;66980;44.384;0.512;2023-04-09T03:15:43;1.77;;;0.47;;
77788;SDS011;66980;44.384;0.512;2023-04-09T03:18:09;1.13;;;0.50;;
77788;SDS011;66980;44.384;0.512;2023-04-09T03:20:38;0.80;;;0.50;;
77788;SDS011;66980;44.384;0.512;2023-04-09T03:23:03;0.93;;;0.63;;
77788;SDS011;66980;44.384;0.512;2023-04-09T03:25:29;1.10;;;0.68;;
77788;SDS011;66980;44.384;0.512;2023-04-09T03:27:54;1.35;;;0.43;;
77788;SDS011;66980;44.384;0.512;2023-04-09T03:30:20;1.70;;;0.43;;
77788;SDS011;66980;44.384;0.512;2023-04-09T03:32:46;1.40;;;0.70;;
77788;SDS011;66980;44.384;0.512;2023-04-09T03:35:11;0.73;;;0.32;;
77788;SDS011;66980;44.384;0.512;2023-04-09T03:37:37;1.92;;;0.60;;
77788;SDS011;66980;44.384;0.512;2023-04-09T03:40:03;1.65;;;0.60;;
77788;SDS011;66980;44.384;0.512;2023-04-09T03:42:31;2.42;;;0.40;;
77788;SDS011;66980;44.384;0.512;2023-04-09T03:44:58;1.10;;;0.50;;
77788;SDS011;66980;44.384;0.512;2023-04-09T03:47:24;1.60;;;0.50;;
77788;SDS011;66980;44.384;0.512;2023-04-09T03:49:50;1.25;;;0.47;;
77788;SDS011;66980;44.384;0.512;2023-04-09T03:52:15;1.15;;;0.40;;
77788;SDS011;66980;44.384;0.512;2023-04-09T03:54:41;1.58;;;0.88;;
77788;SDS011;66980;44.384;0.512;2023-04-09T03:57:07;0.98;;;0.50;;
77788;SDS011;66980;44.384;0.512;2023-04-09T03:59:33;1.83;;;0.93;;
77788;SDS011;66980;44.384;0.512;2023-04-09T04:01:58;0.93;;;0.40;;
77788;SDS011;66980;44.384;0.512;2023-04-09T04:04:24;0.80;;;0.50;;
77788;SDS011;66980;44.384;0.512;2023-04-09T04:06:49;0.80;;;0.47;;
77788;SDS011;66980;44.384;0.512;2023-04-09T04:09:15;0.95;;;0.60;;
77788;SDS011;66980;44.384;0.512;2023-04-09T04:11:40;1.08;;;0.73;;
77788;SDS011;66980;44.384;0.512;2023-04-09T04:14:06;1.63;;;0.60;;
77788;SDS011;66980;44.384;0.512;2023-04-09T04:16:31;1.58;;;0.50;;
77788;SDS011;66980;44.384;0.512;2023-04-09T04:18:57;0.73;;;0.45;;
77788;SDS011;66980;44.384;0.512;2023-04-09T04:21:22;1.73;;;0.73;;
77788;SDS011;66980;44.384;0.512;2023-04-09T04:23:48;1.83;;;0.75;;
77788;SDS011;66980;44.384;0.512;2023-04-09T04:26:13;1.48;;;0.70;;
77788;SDS011;66980;44.384;0.512;2023-04-09T04:28:39;0.95;;;0.32;;
77788;SDS011;66980;44.384;0.512;2023-04-09T04:31:08;1.58;;;0.90;;
77788;SDS011;66980;44.384;0.512;2023-04-09T04:33:38;2.42;;;0.60;;
77788;SDS011;66980;44.384;0.512;2023-04-09T04:38:32;0.93;;;0.68;;
77788;SDS011;66980;44.384;0.512;2023-04-09T04:40:58;2.85;;;0.80;;
77788;SDS011;66980;44.384;0.512;2023-04-09T04:43:24;2.13;;;0.50;;
77788;SDS011;66980;44.384;0.512;2023-04-09T04:45:49;0.75;;;0.50;;
77788;SDS011;66980;44.384;0.512;2023-04-09T04:48:15;0.68;;;0.60;;
77788;SDS011;66980;44.384;0.512;2023-04-09T04:50:40;2.75;;;0.70;;
77788;SDS011;66980;44.384;0.512;2023-04-09T04:53:05;1.02;;;0.47;;
77788;SDS011;66980;44.384;0.512;2023-04-09T04:55:33;2.65;;;0.82;;
77788;SDS011;66980;44.384;0.512;2023-04-09T04:58:00;0.60;;;0.50;;
77788;SDS011;66980;44.384;0.512;2023-04-09T05:00:26;0.73;;;0.43;;
77788;SDS011;66980;44.384;0.512;2023-04-09T05:02:51;1.85;;;0.77;;
77788;SDS011;66980;44.384;0.512;2023-04-09T05:05:17;1.38;;;0.50;;
77788;SDS011;66980;44.384;0.512;2023-04-09T05:07:42;1.60;;;0.80;;
77788;SDS011;66980;44.384;0.512;2023-04-09T05:10:08;0.75;;;0.40;;
77788;SDS011;66980;44.384;0.512;2023-04-09T05:12:33;1.23;;;0.60;;
77788;SDS011;66980;44.384;0.512;2023-04-09T05:14:59;1.25;;;0.77;;
77788;SDS011;66980;44.384;0.512;2023-04-09T05:17:24;0.82;;;0.55;;
77788;SDS011;66980;44.384;0.512;2023-04-09T05:19:51;1.73;;;0.52;;
77788;SDS011;66980;44.384;0.512;2023-04-09T05:22:16;1.85;;;0.90;;
77788;SDS011;66980;44.384;0.512;2023-04-09T05:24:42;2.97;;;0.60;;
77788;SDS011;66980;44.384;0.512;2023-04-09T05:27:07;1.13;;;0.75;;
77788;SDS011;66980;44.384;0.512;2023-04-09T05:29:33;1.00;;;0.55;;
77788;SDS011;66980;44.384;0.512;2023-04-09T05:31:58;1.05;;;0.60;;
77788;SDS011;66980;44.384;0.512;2023-04-09T05:34:24;1.70;;;0.50;;
77788;SDS011;66980;44.384;0.512;2023-04-09T05:36:51;1.88;;;0.95;;
77788;SDS011;66980;44.384;0.512;2023-04-09T05:39:16;1.45;;;0.80;;
77788;SDS011;66980;44.384;0.512;2023-04-09T05:41:42;3.42;;;0.88;;
77788;SDS011;66980;44.384;0.512;2023-04-09T05:44:09;1.23;;;0.70;;
77788;SDS011;66980;44.384;0.512;2023-04-09T05:46:35;1.10;;;0.45;;
77788;SDS011;66980;44.384;0.512;2023-04-09T05:49:00;1.10;;;0.68;;
77788;SDS011;66980;44.384;0.512;2023-04-09T05:51:26;1.48;;;0.85;;
77788;SDS011;66980;44.384;0.512;2023-04-09T05:53:51;3.40;;;0.52;;
77788;SDS011;66980;44.384;0.512;2023-04-09T05:56:17;7.38;;;0.82;;
77788;SDS011;66980;44.384;0.512;2023-04-09T05:58:43;1.90;;;0.63;;
77788;SDS011;66980;44.384;0.512;2023-04-09T06:01:08;0.77;;;0.50;;
77788;SDS011;66980;44.384;0.512;2023-04-09T06:03:34;8.18;;;0.77;;
77788;SDS011;66980;44.384;0.512;2023-04-09T06:06:00;4.85;;;0.90;;
77788;SDS011;66980;44.384;0.512;2023-04-09T06:08:25;2.53;;;0.73;;
77788;SDS011;66980;44.384;0.512;2023-04-09T06:10:51;5.65;;;1.27;;
77788;SDS011;66980;44.384;0.512;2023-04-09T06:13:16;9.40;;;1.98;;
77788;SDS011;66980;44.384;0.512;2023-04-09T06:15:41;2.45;;;1.70;;
77788;SDS011;66980;44.384;0.512;2023-04-09T06:18:07;15.48;;;2.05;;
77788;SDS011;66980;44.384;0.512;2023-04-09T06:20:32;5.55;;;1.52;;
77788;SDS011;66980;44.384;0.512;2023-04-09T06:22:58;6.38;;;2.45;;
77788;SDS011;66980;44.384;0.512;2023-04-09T06:25:24;12.32;;;2.35;;
77788;SDS011;66980;44.384;0.512;2023-04-09T06:27:49;4.13;;;1.75;;
77788;SDS011;66980;44.384;0.512;2023-04-09T06:30:15;3.78;;;1.63;;
77788;SDS011;66980;44.384;0.512;2023-04-09T06:32:41;1.92;;;1.30;;
77788;SDS011;66980;44.384;0.512;2023-04-09T06:35:06;4.22;;;1.90;;
77788;SDS011;66980;44.384;0.512;2023-04-09T06:37:32;2.95;;;1.92;;
77788;SDS011;66980;44.384;0.512;2023-04-09T06:39:58;10.90;;;2.00;;
77788;SDS011;66980;44.384;0.512;2023-04-09T06:42:24;3.75;;;1.85;;
77788;SDS011;66980;44.384;0.512;2023-04-09T06:44:50;2.35;;;1.25;;
77788;SDS011;66980;44.384;0.512;2023-04-09T06:47:16;2.08;;;1.40;;
77788;SDS011;66980;44.384;0.512;2023-04-09T06:49:41;5.10;;;1.70;;
77788;SDS011;66980;44.384;0.512;2023-04-09T06:52:07;9.95;;;1.90;;
77788;SDS011;66980;44.384;0.512;2023-04-09T06:54:32;2.47;;;1.48;;
77788;SDS011;66980;44.384;0.512;2023-04-09T06:56:58;4.35;;;1.10;;
77788;SDS011;66980;44.384;0.512;2023-04-09T06:59:23;2.15;;;1.63;;
77788;SDS011;66980;44.384;0.512;2023-04-09T07:01:48;3.33;;;1.30;;
77788;SDS011;66980;44.384;0.512;2023-04-09T07:04:14;2.08;;;1.52;;
77788;SDS011;66980;44.384;0.512;2023-04-09T07:06:39;3.42;;;1.20;;
77788;SDS011;66980;44.384;0.512;2023-04-09T07:09:05;2.53;;;1.27;;
77788;SDS011;66980;44.384;0.512;2023-04-09T07:11:31;7.88;;;1.23;;
77788;SDS011;66980;44.384;0.512;2023-04-09T07:13:57;1.42;;;1.02;;
77788;SDS011;66980;44.384;0.512;2023-04-09T07:16:22;4.47;;;1.25;;
77788;SDS011;66980;44.384;0.512;2023-04-09T07:18:48;3.67;;;2.05;;
77788;SDS011;66980;44.384;0.512;2023-04-09T07:21:13;6.35;;;2.30;;
77788;SDS011;66980;44.384;0.512;2023-04-09T07:23:39;3.65;;;1.63;;
77788;SDS011;66980;44.384;0.512;2023-04-09T07:26:05;4.53;;;1.92;;
77788;SDS011;66980;44.384;0.512;2023-04-09T07:28:30;4.18;;;2.10;;
77788;SDS011;66980;44.384;0.512;2023-04-09T07:30:57;6.40;;;2.35;;
77788;SDS011;66980;44.384;0.512;2023-04-09T07:33:22;5.55;;;2.17;;
77788;SDS011;66980;44.384;0.512;2023-04-09T07:35:48;9.85;;;2.13;;
77788;SDS011;66980;44.384;0.512;2023-04-09T07:38:13;4.63;;;1.83;;
77788;SDS011;66980;44.384;0.512;2023-04-09T07:40:40;4.43;;;2.17;;
77788;SDS011;66980;44.384;0.512;2023-04-09T07:43:06;6.75;;;2.35;;
77788;SDS011;66980;44.384;0.512;2023-04-09T07:45:31;2.97;;;2.17;;
77788;SDS011;66980;44.384;0.512;2023-04-09T07:47:57;9.63;;;2.80;;
77788;SDS011;66980;44.384;0.512;2023-04-09T07:50:22;3.92;;;1.67;;
77788;SDS011;66980;44.384;0.512;2023-04-09T07:52:48;3.40;;;1.90;;
77788;SDS011;66980;44.384;0.512;2023-04-09T07:55:13;4.68;;;1.30;;
77788;SDS011;66980;44.384;0.512;2023-04-09T07:57:38;5.90;;;2.42;;
77788;SDS011;66980;44.384;0.512;2023-04-09T08:00:04;3.55;;;1.95;;
77788;SDS011;66980;44.384;0.512;2023-04-09T08:02:30;6.05;;;1.67;;
77788;SDS011;66980;44.384;0.512;2023-04-09T08:04:56;3.90;;;1.88;;
77788;SDS011;66980;44.384;0.512;2023-04-09T08:07:21;4.80;;;1.85;;
77788;SDS011;66980;44.384;0.512;2023-04-09T08:09:47;3.58;;;1.95;;
77788;SDS011;66980;44.384;0.512;2023-04-09T08:12:13;4.20;;;1.80;;
77788;SDS011;66980;44.384;0.512;2023-04-09T08:14:38;4.70;;;1.42;;
77788;SDS011;66980;44.384;0.512;2023-04-09T08:17:03;7.07;;;1.92;;
77788;SDS011;66980;44.384;0.512;2023-04-09T08:19:29;13.95;;;2.00;;
77788;SDS011;66980;44.384;0.512;2023-04-09T08:21:55;7.32;;;1.77;;
77788;SDS011;66980;44.384;0.512;2023-04-09T08:24:20;4.95;;;1.60;;
77788;SDS011;66980;44.384;0.512;2023-04-09T08:26:46;3.25;;;1.42;;
77788;SDS011;66980;44.384;0.512;2023-04-09T08:29:12;5.88;;;2.28;;
77788;SDS011;66980;44.384;0.512;2023-04-09T08:31:39;2.00;;;1.70;;
77788;SDS011;66980;44.384;0.512;2023-04-09T08:34:05;2.47;;;1.38;;
77788;SDS011;66980;44.384;0.512;2023-04-09T08:36:30;5.68;;;1.80;;
77788;SDS011;66980;44.384;0.512;2023-04-09T08:38:56;4.47;;;1.92;;
77788;SDS011;66980;44.384;0.512;2023-04-09T08:41:24;3.63;;;1.55;;
77788;SDS011;66980;44.384;0.512;2023-04-09T08:43:52;4.00;;;1.48;;
77788;SDS011;66980;44.384;0.512;2023-04-09T08:46:19;4.25;;;1.27;;
77788;SDS011;66980;44.384;0.512;2023-04-09T08:48:45;6.57;;;1.58;;
77788;SDS011;66980;44.384;0.512;2023-04-09T08:51:15;4.47;;;1.42;;
77788;SDS011;66980;44.384;0.512;2023-04-09T08:53:43;5.00;;;1.15;;
77788;SDS011;66980;44.384;0.512;2023-04-09T08:56:14;7.38;;;1.67;;
77788;SDS011;66980;44.384;0.512;2023-04-09T08:58:41;3.97;;;1.50;;
77788;SDS011;66980;44.384;0.512;2023-04-09T09:01:21;3.53;;;1.50;;
77788;SDS011;66980;44.384;0.512;2023-04-09T09:06:29;3.08;;;1.35;;
77788;SDS011;66980;44.384;0.512;2023-04-09T09:09:12;3.65;;;1.27;;
77788;SDS011;66980;44.384;0.512;2023-04-09T09:11:43;2.88;;;1.27;;
77788;SDS011;66980;44.384;0.512;2023-04-09T09:14:14;3.75;;;1.13;;
77788;SDS011;66980;44.384;0.512;2023-04-09T09:16:41;3.92;;;1.38;;
77788;SDS011;66980;44.384;0.512;2023-04-09T09:19:08;5.80;;;1.27;;
77788;SDS011;66980;44.384;0.512;2023-04-09T09:21:55;1.75;;;1.20;;
77788;SDS011;66980;44.384;0.512;2023-04-09T09:24:24;3.83;;;1.10;;
77788;SDS011;66980;44.384;0.512;2023-04-09T09:26:51;2.00;;;0.90;;
77788;SDS011;66980;44.384;0.512;2023-04-09T09:29:18;5.10;;;1.08;;
77788;SDS011;66980;44.384;0.512;2023-04-09T09:31:44;1.20;;;0.55;;
77788;SDS011;66980;44.384;0.512;2023-04-09T09:34:13;4.05;;;1.25;;
77788;SDS011;66980;44.384;0.512;2023-04-09T09:36:38;1.27;;;0.70;;
77788;SDS011;66980;44.384;0.512;2023-04-09T09:39:04;3.00;;;1.17;;
77788;SDS011;66980;44.384;0.512;2023-04-09T09:41:34;4.38;;;1.98;;
77788;SDS011;66980;44.384;0.512;2023-04-09T09:44:00;2.35;;;0.90;;
77788;SDS011;66980;44.384;0.512;2023-04-09T09:46:27;2.30;;;1.10;;
77788;SDS011;66980;44.384;0.512;2023-04-09T09:48:55;2.53;;;1.13;;
77788;SDS011;66980;44.384;0.512;2023-04-09T09:51:21;2.45;;;1.05;;
77788;SDS011;66980;44.384;0.512;2023-04-09T09:53:51;2.42;;;0.75;;
77788;SDS011;66980;44.384;0.512;2023-04-09T09:56:21;1.88;;;0.93;;
77788;SDS011;66980;44.384;0.512;2023-04-09T09:59:06;4.72;;;0.98;;
77788;SDS011;66980;44.384;0.512;2023-04-09T10:01:37;3.40;;;0.95;;
77788;SDS011;66980;44.384;0.512;2023-04-09T10:04:04;2.70;;;1.08;;
77788;SDS011;66980;44.384;0.512;2023-04-09T10:06:34;3.47;;;1.58;;
77788;SDS011;66980;44.384;0.512;2023-04-09T10:08:59;2.38;;;1.27;;
77788;SDS011;66980;44.384;0.512;2023-04-09T10:11:29;2.53;;;1.23;;
77788;SDS011;66980;44.384;0.512;2023-04-09T10:13:57;3.00;;;1.67;;
77788;SDS011;66980;44.384;0.512;2023-04-09T10:16:25;3.33;;;1.20;;
77788;SDS011;66980;44.384;0.512;2023-04-09T10:18:52;1.52;;;1.05;;
77788;SDS011;66980;44.384;0.512;2023-04-09T10:24:01;2.00;;;0.98;;
77788;SDS011;66980;44.384;0.512;2023-04-09T10:26:31;2.03;;;1.42;;
77788;SDS011;66980;44.384;0.512;2023-04-09T10:29:06;5.70;;;1.73;;
77788;SDS011;66980;44.384;0.512;2023-04-09T10:34:22;4.97;;;1.17;;
77788;SDS011;66980;44.384;0.512;2023-04-09T10:36:55;1.73;;;1.15;;
77788;SDS011;66980;44.384;0.512;2023-04-09T10:39:25;2.15;;;1.05;;
77788;SDS011;66980;44.384;0.512;2023-04-09T10:41:52;2.40;;;1.02;;
77788;SDS011;66980;44.384;0.512;2023-04-09T10:44:19;1.80;;;1.25;;
77788;SDS011;66980;44.384;0.512;2023-04-09T10:46:53;4.22;;;1.30;;
77788;SDS011;66980;44.384;0.512;2023-04-09T10:49:22;4.45;;;1.08;;
77788;SDS011;66980;44.384;0.512;2023-04-09T10:51:53;7.78;;;0.98;;
77788;SDS011;66980;44.384;0.512;2023-04-09T10:59:37;2.10;;;0.75;;
77788;SDS011;66980;44.384;0.512;2023-04-09T11:02:07;6.18;;;0.90;;
77788;SDS011;66980;44.384;0.512;2023-04-09T11:07:21;1.02;;;0.68;;
77788;SDS011;66980;44.384;0.512;2023-04-09T11:12:15;5.18;;;1.90;;
77788;SDS011;66980;44.384;0.512;2023-04-09T11:14:40;1.48;;;0.75;;
77788;SDS011;66980;44.384;0.512;2023-04-09T11:17:06;3.55;;;1.25;;
77788;SDS011;66980;44.384;0.512;2023-04-09T11:19:32;1.08;;;0.90;;
77788;SDS011;66980;44.384;0.512;2023-04-09T11:21:58;0.70;;;0.70;;
77788;SDS011;66980;44.384;0.512;2023-04-09T11:24:24;1.75;;;0.95;;
77788;SDS011;66980;44.384;0.512;2023-04-09T11:26:50;2.58;;;0.82;;
77788;SDS011;66980;44.384;0.512;2023-04-09T11:29:15;2.88;;;0.68;;
77788;SDS011;66980;44.384;0.512;2023-04-09T11:31:44;0.75;;;0.45;;
77788;SDS011;66980;44.384;0.512;2023-04-09T11:34:10;1.55;;;0.50;;
77788;SDS011;66980;44.384;0.512;2023-04-09T11:36:39;0.65;;;0.35;;
77788;SDS011;66980;44.384;0.512;2023-04-09T11:39:05;3.88;;;0.57;;
77788;SDS011;66980;44.384;0.512;2023-04-09T11:41:39;0.60;;;0.40;;
77788;SDS011;66980;44.384;0.512;2023-04-09T11:44:06;1.92;;;0.50;;
77788;SDS011;66980;44.384;0.512;2023-04-09T11:46:32;0.70;;;0.68;;
77788;SDS011;66980;44.384;0.512;2023-04-09T11:48:59;0.93;;;0.55;;
77788;SDS011;66980;44.384;0.512;2023-04-09T11:51:26;0.98;;;0.30;;
77788;SDS011;66980;44.384;0.512;2023-04-09T11:53:52;1.60;;;0.47;;
77788;SDS011;66980;44.384;0.512;2023-04-09T11:56:18;3.17;;;0.70;;
77788;SDS011;66980;44.384;0.512;2023-04-09T11:58:47;0.73;;;0.40;;
77788;SDS011;66980;44.384;0.512;2023-04-09T12:01:13;2.13;;;0.50;;
77788;SDS011;66980;44.384;0.512;2023-04-09T12:03:39;0.70;;;0.22;;
77788;SDS011;66980;44.384;0.512;2023-04-09T12:06:05;0.70;;;0.40;;
77788;SDS011;66980;44.384;0.512;2023-04-09T12:08:35;3.38;;;0.55;;
77788;SDS011;66980;44.384;0.512;2023-04-09T12:11:11;0.85;;;0.38;;
77788;SDS011;66980;44.384;0.512;2023-04-09T12:13:39;0.57;;;0.30;;
77788;SDS011;66980;44.384;0.512;2023-04-09T12:16:09;0.85;;;0.50;;
77788;SDS011;66980;44.384;0.512;2023-04-09T12:18:37;1.20;;;0.40;;
77788;SDS011;66980;44.384;0.512;2023-04-09T12:21:04;1.10;;;0.40;;
77788;SDS011;66980;44.384;0.512;2023-04-09T12:23:30;4.68;;;0.50;;
77788;SDS011;66980;44.384;0.512;2023-04-09T12:25:56;0.40;;;0.30;;
77788;SDS011;66980;44.384;0.512;2023-04-09T12:28:26;1.10;;;0.52;;
77788;SDS011;66980;44.384;0.512;2023-04-09T12:30:52;0.30;;;0.13;;
77788;SDS011;66980;44.384;0.512;2023-04-09T12:33:18;0.90;;;0.50;;
77788;SDS011;66980;44.384;0.512;2023-04-09T12:35:45;0.38;;;0.38;;
77788;SDS011;66980;44.384;0.512;2023-04-09T12:38:11;3.20;;;0.20;;
77788;SDS011;66980;44.384;0.512;2023-04-09T12:40:37;1.52;;;0.40;;
77788;SDS011;66980;44.384;0.512;2023-04-09T12:43:02;2.95;;;0.32;;
77788;SDS011;66980;44.384;0.512;2023-04-09T12:45:28;0.70;;;0.20;;
77788;SDS011;66980;44.384;0.512;2023-04-09T12:47:55;2.08;;;0.43;;
77788;SDS011;66980;44.384;0.512;2023-04-09T12:50:20;1.70;;;0.20;;
77788;SDS011;66980;44.384;0.512;2023-04-09T12:52:46;1.98;;;0.20;;
77788;SDS011;66980;44.384;0.512;2023-04-09T12:55:12;0.43;;;0.20;;
77788;SDS011;66980;44.384;0.512;2023-04-09T12:57:41;5.07;;;0.45;;
77788;SDS011;66980;44.384;0.512;2023-04-09T13:00:08;1.30;;;0.40;;
77788;SDS011;66980;44.384;0.512;2023-04-09T13:02:34;0.57;;;0.22;;
77788;SDS011;66980;44.384;0.512;2023-04-09T13:05:00;1.88;;;0.20;;
77788;SDS011;66980;44.384;0.512;2023-04-09T13:07:26;0.30;;;0.20;;
77788;SDS011;66980;44.384;0.512;2023-04-09T13:09:53;0.47;;;0.13;;
77788;SDS011;66980;44.384;0.512;2023-04-09T13:12:20;0.57;;;0.20;;
77788;SDS011;66980;44.384;0.512;2023-04-09T13:14:46;0.20;;;0.20;;
77788;SDS011;66980;44.384;0.512;2023-04-09T13:17:12;3.33;;;0.40;;
77788;SDS011;66980;44.384;0.512;2023-04-09T13:19:38;0.40;;;0.13;;
77788;SDS011;66980;44.384;0.512;2023-04-09T13:22:04;0.50;;;0.32;;
77788;SDS011;66980;44.384;0.512;2023-04-09T13:26:58;0.50;;;0.30;;
77788;SDS011;66980;44.384;0.512;2023-04-09T13:29:23;1.75;;;0.10;;
77788;SDS011;66980;44.384;0.512;2023-04-09T13:31:53;0.50;;;0.30;;
77788;SDS011;66980;44.384;0.512;2023-04-09T13:34:22;0.57;;;0.25;;
77788;SDS011;66980;44.384;0.512;2023-04-09T13:36:48;0.43;;;0.35;;
77788;SDS011;66980;44.384;0.512;2023-04-09T13:39:14;0.55;;;0.30;;
77788;SDS011;66980;44.384;0.512;2023-04-09T13:41:40;0.68;;;0.32;;
77788;SDS011;66980;44.384;0.512;2023-04-09T13:44:05;0.68;;;0.10;;
77788;SDS011;66980;44.384;0.512;2023-04-09T13:46:31;0.38;;;0.10;;
77788;SDS011;66980;44.384;0.512;2023-04-09T13:48:57;0.28;;;0.20;;
77788;SDS011;66980;44.384;0.512;2023-04-09T13:51:24;0.55;;;0.20;;
77788;SDS011;66980;44.384;0.512;2023-04-09T13:53:51;0.50;;;0.30;;
77788;SDS011;66980;44.384;0.512;2023-04-09T13:56:17;0.65;;;0.50;;
77788;SDS011;66980;44.384;0.512;2023-04-09T13:58:43;0.38;;;0.20;;
77788;SDS011;66980;44.384;0.512;2023-04-09T14:01:09;0.40;;;0.20;;
77788;SDS011;66980;44.384;0.512;2023-04-09T14:03:35;0.45;;;0.20;;
77788;SDS011;66980;44.384;0.512;2023-04-09T14:06:07;0.30;;;0.20;;
77788;SDS011;66980;44.384;0.512;2023-04-09T14:08:33;0.60;;;0.30;;
77788;SDS011;66980;44.384;0.512;2023-04-09T14:10:59;0.47;;;0.15;;
77788;SDS011;66980;44.384;0.512;2023-04-09T14:13:25;0.30;;;0.20;;
77788;SDS011;66980;44.384;0.512;2023-04-09T14:15:51;1.02;;;0.20;;
77788;SDS011;66980;44.384;0.512;2023-04-09T14:18:16;0.30;;;0.22;;
77788;SDS011;66980;44.384;0.512;2023-04-09T14:20:41;0.40;;;0.30;;
77788;SDS011;66980;44.384;0.512;2023-04-09T14:23:07;0.20;;;0.10;;
77788;SDS011;66980;44.384;0.512;2023-04-09T14:25:32;0.30;;;0.10;;
77788;SDS011;66980;44.384;0.512;2023-04-09T14:27:58;0.57;;;0.20;;
77788;SDS011;66980;44.384;0.512;2023-04-09T14:30:24;0.95;;;0.20;;
77788;SDS011;66980;44.384;0.512;2023-04-09T14:32:49;0.32;;;0.25;;
77788;SDS011;66980;44.384;0.512;2023-04-09T14:35:15;0.32;;;0.25;;
77788;SDS011;66980;44.384;0.512;2023-04-09T14:37:40;3.67;;;0.50;;
77788;SDS011;66980;44.384;0.512;2023-04-09T14:40:07;0.68;;;0.50;;
77788;SDS011;66980;44.384;0.512;2023-04-09T14:42:32;2.05;;;0.40;;
77788;SDS011;66980;44.384;0.512;2023-04-09T14:44:58;0.60;;;0.10;;
77788;SDS011;66980;44.384;0.512;2023-04-09T14:47:23;0.82;;;0.30;;
77788;SDS011;66980;44.384;0.512;2023-04-09T14:49:49;2.10;;;0.20;;
77788;SDS011;66980;44.384;0.512;2023-04-09T14:52:15;3.78;;;0.85;;
77788;SDS011;66980;44.384;0.512;2023-04-09T14:54:41;1.17;;;0.38;;
77788;SDS011;66980;44.384;0.512;2023-04-09T14:57:06;0.10;;;0.10;;
77788;SDS011;66980;44.384;0.512;2023-04-09T14:59:32;0.28;;;0.20;;
77788;SDS011;66980;44.384;0.512;2023-04-09T15:01:58;0.20;;;0.20;;
77788;SDS011;66980;44.384;0.512;2023-04-09T15:04:24;0.55;;;0.20;;
77788;SDS011;66980;44.384;0.512;2023-04-09T15:06:49;0.50;;;0.45;;
77788;SDS011;66980;44.384;0.512;2023-04-09T15:09:15;0.52;;;0.20;;
77788;SDS011;66980;44.384;0.512;2023-04-09T15:11:41;0.60;;;0.22;;
77788;SDS011;66980;44.384;0.512;2023-04-09T15:14:06;5.10;;;0.60;;
77788;SDS011;66980;44.384;0.512;2023-04-09T15:16:32;39.22;;;4.35;;
77788;SDS011;66980;44.384;0.512;2023-04-09T15:19:01;29.40;;;3.67;;
77788;SDS011;66980;44.384;0.512;2023-04-09T15:21:27;16.83;;;2.00;;